Time;durP1;ratioP1;P1;durP2;ratioP2;P2;SDS_P1;SDS_P2;PMS_P1;PMS_P2;Temp;Humidity;BMP_temperature;BMP_pressure;BME280_temperature;BME280_humidity;BME280_pressure;Samples;Min_cycle;Max_cycle;Signal;HPM_P1;HPM_P2
2023/10/10 00:00:27;;;;;;;8.9;2.9;;;;;;;16.67;70.72852;943.7119;;;;
2023/10/10 00:02:46;;;;;;;9.7;3;;;;;;;16.67;71.15723;943.6909;;;;
2023/10/10 00:05:12;;;;;;;12.8;3.4;;;;;;;16.69;72.14453;943.6411;;;;
2023/10/10 00:07:40;;;;;;;11.6;3.5;;;;;;;16.73;72.85645;943.7084;;;;
2023/10/10 00:10:04;;;;;;;7.8;3.1;;;;;;;16.74;73.26465;943.6922;;;;
2023/10/10 00:12:30;;;;;;;9.9;3.2;;;;;;;16.7;72.72461;943.7431;;;;
2023/10/10 00:14:58;;;;;;;9.7;2.9;;;;;;;16.65;72.22949;943.7294;;;;
2023/10/10 00:17:20;;;;;;;7;2.7;;;;;;;16.58;72.17285;943.608;;;;
2023/10/10 00:19:45;;;;;;;10.3;3.2;;;;;;;16.66;71.98926;943.7229;;;;
2023/10/10 00:22:10;;;;;;;12.1;3.1;;;;;;;16.69;71.31055;943.707;;;;
2023/10/10 00:24:35;;;;;;;9.1;2.9;;;;;;;16.68;71.28613;943.6539;;;;
2023/10/10 00:27:06;;;;;;;9.9;3.3;;;;;;;16.72;72.20703;943.6939;;;;
2023/10/10 00:29:26;;;;;;;8.6;3;;;;;;;16.75;71.93359;943.7452;;;;
2023/10/10 00:31:55;;;;;;;9.8;3;;;;;;;16.73;70.69141;943.6601;;;;
2023/10/10 00:34:15;;;;;;;6.8;3.1;;;;;;;16.59;70.57617;943.6972;;;;
2023/10/10 00:36:41;;;;;;;11.8;2.9;;;;;;;16.65;72.36816;943.6731;;;;
2023/10/10 00:39:22;;;;;;;9.2;2.8;;;;;;;16.76;72.59473;943.611;;;;
2023/10/10 00:41:42;;;;;;;8.6;3.1;;;;;;;16.8;71.90723;943.5969;;;;
2023/10/10 00:44:00;;;;;;;12.1;3.5;;;;;;;16.63;72.00684;943.5759;;;;
2023/10/10 00:46:28;;;;;;;10.2;3.1;;;;;;;16.59;71.02832;943.4906;;;;
2023/10/10 00:48:59;;;;;;;10.2;2.9;;;;;;;16.59;70.47266;943.5831;;;;
2023/10/10 00:51:21;;;;;;;8.4;2.8;;;;;;;16.48;70.90625;943.5611;;;;
2023/10/10 00:53:44;;;;;;;7.8;3;;;;;;;16.53;71.20117;943.5601;;;;
2023/10/10 00:56:07;;;;;;;9.4;3.1;;;;;;;16.56;70.68848;943.539;;;;
2023/10/10 00:58:36;;;;;;;6.9;2.8;;;;;;;16.64;70.99023;943.563;;;;
2023/10/10 01:00:58;;;;;;;10;2.8;;;;;;;16.7;71.05762;943.5622;;;;
2023/10/10 01:03:30;;;;;;;14.5;3.6;;;;;;;16.56;71.27832;943.5398;;;;
2023/10/10 01:05:55;;;;;;;8.7;3.1;;;;;;;16.51;71.39648;943.5441;;;;
2023/10/10 01:08:17;;;;;;;11.7;3;;;;;;;16.39;71.94531;943.4278;;;;
2023/10/10 01:10:43;;;;;;;9.5;2.8;;;;;;;16.39;71.59668;943.4664;;;;
2023/10/10 01:13:10;;;;;;;8.2;3.1;;;;;;;16.51;72.4834;943.4734;;;;
2023/10/10 01:15:35;;;;;;;8.8;3.4;;;;;;;16.3;74.23242;943.5053;;;;
2023/10/10 01:18:01;;;;;;;12.6;3.3;;;;;;;16.29;74.33398;943.4692;;;;
2023/10/10 01:20:34;;;;;;;9.6;3.4;;;;;;;16.21;75.3623;943.4587;;;;
2023/10/10 01:22:56;;;;;;;10.4;3.2;;;;;;;16.3;75.43555;943.429;;;;
2023/10/10 01:26:05;;;;;;;11.7;3.1;;;;;;;16.31;74.39453;943.4619;;;;
2023/10/10 01:27:44;;;;;;;8.8;3.2;;;;;;;16.26;73.41504;943.401;;;;
2023/10/10 01:30:18;;;;;;;8.6;3;;;;;;;16.24;73.05371;943.3706;;;;
2023/10/10 01:32:38;;;;;;;9.5;3.4;;;;;;;16.28;73.53418;943.4146;;;;
2023/10/10 01:35:01;;;;;;;10.5;3.1;;;;;;;16.31;73.12305;943.3317;;;;
2023/10/10 01:37:27;;;;;;;11.5;3.4;;;;;;;16.24;73.64355;943.3167;;;;
2023/10/10 01:39:53;;;;;;;13.3;3.4;;;;;;;16.31;74.25586;943.3542;;;;
2023/10/10 01:42:23;;;;;;;8.8;3;;;;;;;16.28;73.7207;943.3736;;;;
2023/10/10 01:44:43;;;;;;;8.6;3.1;;;;;;;16.23;74.33594;943.3963;;;;
2023/10/10 01:47:26;;;;;;;10.7;3.4;;;;;;;16.15;74.00977;943.4116;;;;
2023/10/10 01:49:37;;;;;;;8.6;3.1;;;;;;;16.14;73.5918;943.345;;;;
2023/10/10 01:52:02;;;;;;;12.3;3.3;;;;;;;16.01;73.56934;943.3419;;;;
2023/10/10 01:54:34;;;;;;;9.2;3.1;;;;;;;15.8;74.20508;943.3125;;;;
2023/10/10 01:56:54;;;;;;;7.9;2.8;;;;;;;15.79;74.76953;943.2917;;;;
2023/10/10 01:59:19;;;;;;;8.1;3.1;;;;;;;15.93;74.68848;943.3574;;;;
2023/10/10 02:01:45;;;;;;;8.7;3;;;;;;;16.03;75.11133;943.3052;;;;
2023/10/10 02:04:11;;;;;;;11.8;3.3;;;;;;;15.99;75.83203;943.35;;;;
2023/10/10 02:06:39;;;;;;;12.1;3.2;;;;;;;16.01;76.39063;943.2938;;;;
2023/10/10 02:09:11;;;;;;;12.4;3.2;;;;;;;16.06;76.12207;943.2971;;;;
2023/10/10 02:11:31;;;;;;;11;3.1;;;;;;;16.13;75.52148;943.288;;;;
2023/10/10 02:13:53;;;;;;;11;3;;;;;;;16.17;75.48145;943.2693;;;;
2023/10/10 02:16:25;;;;;;;16.1;3.6;;;;;;;16.18;75.47363;943.3311;;;;
2023/10/10 02:18:51;;;;;;;8.1;3.1;;;;;;;16.2;75.19922;943.3447;;;;
2023/10/10 02:21:16;;;;;;;9.8;3.1;;;;;;;16.22;74.87695;943.2523;;;;
2023/10/10 02:23:44;;;;;;;8.9;3.5;;;;;;;16.19;74.63086;943.2885;;;;
2023/10/10 02:26:35;;;;;;;15.2;3.4;;;;;;;16.21;75.14063;943.3262;;;;
2023/10/10 02:28:43;;;;;;;11.2;2.9;;;;;;;16.2;75.11816;943.3295;;;;
2023/10/10 02:30:52;;;;;;;10.2;3.2;;;;;;;16.2;75.34961;943.3198;;;;
2023/10/10 02:33:29;;;;;;;9.4;3;;;;;;;16.19;75.32324;943.3063;;;;
2023/10/10 02:35:56;;;;;;;9.7;3.3;;;;;;;16.18;75.59863;943.291;;;;
2023/10/10 02:38:12;;;;;;;9.3;3.3;;;;;;;16.2;75.33594;943.1785;;;;
2023/10/10 02:40:42;;;;;;;10.5;3;;;;;;;16.06;74.72266;943.2392;;;;
2023/10/10 02:43:19;;;;;;;11.3;2.9;;;;;;;15.9;75.02051;943.2017;;;;
2023/10/10 02:45:28;;;;;;;12;3.1;;;;;;;15.77;75.37891;943.2653;;;;
2023/10/10 02:47:53;;;;;;;6.8;2.7;;;;;;;15.77;75.58691;943.2756;;;;
2023/10/10 02:50:15;;;;;;;11.9;3.6;;;;;;;15.78;75.75;943.1937;;;;
2023/10/10 02:52:45;;;;;;;8.1;2.8;;;;;;;15.81;75.84766;943.2025;;;;
2023/10/10 02:55:12;;;;;;;9.7;2.8;;;;;;;15.78;75.90039;943.2065;;;;
2023/10/10 02:57:30;;;;;;;11.9;4.1;;;;;;;15.69;76.20801;943.1498;;;;
2023/10/10 02:59:59;;;;;;;7.5;3.1;;;;;;;15.63;76.03516;943.1917;;;;
2023/10/10 03:02:28;;;;;;;12.1;3.2;;;;;;;15.64;75.77148;943.1467;;;;
2023/10/10 03:05:14;;;;;;;11.9;3.2;;;;;;;15.64;75.91113;943.1418;;;;
2023/10/10 03:07:15;;;;;;;9.3;3.2;;;;;;;15.64;75.70313;943.0848;;;;
2023/10/10 03:10:06;;;;;;;10.9;3.3;;;;;;;15.69;76.62402;943.0968;;;;
2023/10/10 03:12:05;;;;;;;9.7;2.9;;;;;;;15.76;76.92383;943.1263;;;;
2023/10/10 03:14:28;;;;;;;9;3.5;;;;;;;15.83;75.67871;943.1409;;;;
2023/10/10 03:17:03;;;;;;;7.6;3.1;;;;;;;15.78;75.32227;943.1487;;;;
2023/10/10 03:19:28;;;;;;;10.6;3.3;;;;;;;15.75;75.20117;943.1415;;;;
2023/10/10 03:21:51;;;;;;;9;3;;;;;;;15.69;75.43359;943.108;;;;
2023/10/10 03:24:21;;;;;;;9.1;2.7;;;;;;;15.62;75.61816;943.1484;;;;
2023/10/10 03:26:52;;;;;;;11.1;3.1;;;;;;;15.68;75.4209;943.1498;;;;
2023/10/10 03:29:04;;;;;;;11.3;3.3;;;;;;;15.74;75.53418;943.1192;;;;
2023/10/10 03:31:31;;;;;;;8.4;2.9;;;;;;;15.82;75.87207;943.0807;;;;
2023/10/10 03:34:04;;;;;;;7.4;2.8;;;;;;;15.84;75.58789;943.0838;;;;
2023/10/10 03:36:31;;;;;;;8.6;3.2;;;;;;;15.9;75.73535;943.0668;;;;
2023/10/10 05:23:29;;;;;;;10;2.9;;;;;;;15.91;75.28613;943.0844;;;;
2023/10/10 05:24:51;;;;;;;10.8;3.4;;;;;;;15.19;80.2998;943.2753;;;;
2023/10/10 05:27:13;;;;;;;12;5.7;;;;;;;15.23;80.38672;943.2531;;;;
2023/10/10 05:29:43;;;;;;;22.6;9.4;;;;;;;15.22;80.24707;943.3582;;;;
2023/10/10 05:32:08;;;;;;;14.9;6;;;;;;;15.25;80.75977;943.3301;;;;
2023/10/10 05:34:34;;;;;;;13;5.4;;;;;;;15.19;80.93457;943.3411;;;;
2023/10/10 05:36:58;;;;;;;10.8;3.5;;;;;;;15.1;80.83496;943.3611;;;;
2023/10/10 05:39:26;;;;;;;10.1;3.3;;;;;;;15.18;80.80566;943.3234;;;;
2023/10/10 05:41:54;;;;;;;12.5;4;;;;;;;15.19;80.72656;943.3411;;;;
2023/10/10 05:44:16;;;;;;;12.3;3.8;;;;;;;15.13;80.43945;943.3924;;;;
2023/10/10 05:46:40;;;;;;;10.6;3.1;;;;;;;15.19;80.63379;943.4077;;;;
2023/10/10 05:49:06;;;;;;;11.9;3.7;;;;;;;15.27;80.06055;943.4015;;;;
2023/10/10 05:51:33;;;;;;;10.2;3.8;;;;;;;15.15;81.14453;943.3731;;;;
2023/10/10 05:53:58;;;;;;;11.9;3.5;;;;;;;15.04;81.11328;943.3395;;;;
2023/10/10 05:56:24;;;;;;;8.5;3.1;;;;;;;15.06;81.80859;943.3571;;;;
2023/10/10 05:58:49;;;;;;;10.1;3.4;;;;;;;15.03;81.26172;943.4397;;;;
2023/10/10 06:01:17;;;;;;;10;3.9;;;;;;;15.04;81.52832;943.4494;;;;
2023/10/10 06:03:44;;;;;;;11.3;3.6;;;;;;;15.15;81.26074;943.4734;;;;
2023/10/10 06:06:11;;;;;;;11.1;3.5;;;;;;;15.18;81.04785;943.4012;;;;
2023/10/10 06:08:36;;;;;;;11.3;3.5;;;;;;;15.22;80.43164;943.4835;;;;
2023/10/10 06:10:59;;;;;;;8.2;3.4;;;;;;;15.27;80.41797;943.5267;;;;
2023/10/10 06:13:23;;;;;;;10.3;3.6;;;;;;;15.4;79.87598;943.5145;;;;
2023/10/10 06:15:50;;;;;;;10.6;4.1;;;;;;;15.31;80.13477;943.5162;;;;
2023/10/10 06:18:14;;;;;;;10.8;3.5;;;;;;;15.34;80.58008;943.4705;;;;
2023/10/10 06:20:42;;;;;;;12.3;3.6;;;;;;;15.34;80.07324;943.5323;;;;
2023/10/10 06:23:06;;;;;;;10.8;3.5;;;;;;;15.43;79.83398;943.5614;;;;
2023/10/10 06:25:35;;;;;;;9.6;3.4;;;;;;;15.54;79.82129;943.5822;;;;
2023/10/10 06:28:00;;;;;;;12.4;3.7;;;;;;;15.5;79.58203;943.5903;;;;
2023/10/10 06:30:28;;;;;;;8.5;3.9;;;;;;;15.52;79.91992;943.5983;;;;
2023/10/10 06:33:01;;;;;;;12.9;4;;;;;;;15.53;79.86426;943.6825;;;;
2023/10/10 06:35:28;;;;;;;9;4.3;;;;;;;15.62;79.16602;943.6766;;;;
2023/10/10 06:37:44;;;;;;;8.4;3.9;;;;;;;15.64;78.40723;943.6942;;;;
2023/10/10 06:40:09;;;;;;;23.1;10.9;;;;;;;15.53;78.40918;943.7009;;;;
2023/10/10 06:42:34;;;;;;;13.5;7;;;;;;;15.64;78.39355;943.6011;;;;
2023/10/10 06:45:07;;;;;;;12.4;5;;;;;;;15.67;78.07617;943.6694;;;;
2023/10/10 06:47:28;;;;;;;19.6;4.5;;;;;;;15.65;78.05078;943.63;;;;
2023/10/10 06:49:55;;;;;;;11.6;3.9;;;;;;;15.65;78.37402;943.6581;;;;
2023/10/10 06:52:18;;;;;;;13.8;4.2;;;;;;;15.76;79.23535;943.6507;;;;
2023/10/10 06:54:44;;;;;;;11.7;4.6;;;;;;;15.93;78.74805;943.6555;;;;
2023/10/10 06:57:09;;;;;;;12.5;4.2;;;;;;;16.06;77.11719;943.6072;;;;
2023/10/10 06:59:37;;;;;;;11.9;3.7;;;;;;;16.18;76.45703;943.5746;;;;
2023/10/10 07:02:13;;;;;;;11.7;3.5;;;;;;;16.08;76.78613;943.6464;;;;
2023/10/10 07:04:27;;;;;;;12.8;3.4;;;;;;;16.16;76.5791;943.6237;;;;
2023/10/10 07:07:00;;;;;;;12.5;3.9;;;;;;;16.25;75.66895;943.5916;;;;
2023/10/10 07:09:27;;;;;;;13.1;3.9;;;;;;;16.23;75.62109;943.5859;;;;
2023/10/10 07:11:45;;;;;;;10.7;3.6;;;;;;;16.27;75.42969;943.565;;;;
2023/10/10 07:14:16;;;;;;;11.5;3.7;;;;;;;16.36;74.94727;943.5035;;;;
2023/10/10 07:16:42;;;;;;;11.2;3;;;;;;;16.53;74.33984;943.5858;;;;
2023/10/10 07:19:19;;;;;;;12.1;3.1;;;;;;;16.8;73.18164;943.6372;;;;
2023/10/10 07:21:36;;;;;;;15.6;4;;;;;;;16.87;73.2627;943.5575;;;;
2023/10/10 07:24:02;;;;;;;7.7;3.3;;;;;;;17.17;72.98926;943.6546;;;;
2023/10/10 07:26:23;;;;;;;11;2.9;;;;;;;17.51;72.80176;943.6267;;;;
2023/10/10 07:28:52;;;;;;;11.2;3;;;;;;;17.74;69.92578;943.6043;;;;
2023/10/10 07:31:17;;;;;;;10.7;3.3;;;;;;;17.6;70.40332;943.6364;;;;
2023/10/10 07:33:42;;;;;;;10;3.2;;;;;;;17.88;69.2168;943.6331;;;;
2023/10/10 07:36:02;;;;;;;9.7;3.9;;;;;;;18.11;68.26465;943.5536;;;;
2023/10/10 07:38:30;;;;;;;13.5;3.9;;;;;;;18.41;67.5791;943.5793;;;;
2023/10/10 07:40:54;;;;;;;9.5;3.5;;;;;;;18.67;65.78125;943.6069;;;;
2023/10/10 07:43:26;;;;;;;11;3.9;;;;;;;18.73;65.29004;943.5762;;;;
2023/10/10 07:45:47;;;;;;;12.6;3.6;;;;;;;18.96;64.26563;943.5579;;;;
2023/10/10 07:50:47;;;;;;;12.9;3.8;;;;;;;19.41;63.17676;943.5347;;;;
2023/10/10 07:53:06;;;;;;;12.2;3.6;;;;;;;19.55;62.39258;943.5387;;;;
2023/10/10 07:55:34;;;;;;;13;3.2;;;;;;;19.82;61.66113;943.5378;;;;
2023/10/10 07:57:59;;;;;;;14.6;4;;;;;;;19.89;58.2998;943.5327;;;;
2023/10/10 08:00:26;;;;;;;14.3;3.3;;;;;;;19.83;60.82324;943.5151;;;;
2023/10/10 08:02:49;;;;;;;12.2;3.1;;;;;;;19.84;58.24707;943.4235;;;;
2023/10/10 08:05:12;;;;;;;11.3;3;;;;;;;20.08;58.30176;943.4808;;;;
2023/10/10 08:07:35;;;;;;;9.7;2.9;;;;;;;20.47;59.1582;943.4417;;;;
2023/10/10 08:10:29;;;;;;;13.5;3.4;;;;;;;20.87;58.5459;943.4549;;;;
2023/10/10 08:12:30;;;;;;;13.8;3.5;;;;;;;20.97;55.91699;943.455;;;;
2023/10/10 08:14:59;;;;;;;8.4;2.7;;;;;;;21.08;55.68457;943.4149;;;;
2023/10/10 08:17:25;;;;;;;16.5;2.9;;;;;;;21.46;55.33398;943.4229;;;;
2023/10/10 08:19:50;;;;;;;9.4;3;;;;;;;21.75;54.31543;943.4023;;;;
2023/10/10 08:22:15;;;;;;;11.6;2.8;;;;;;;21.61;52.95215;943.353;;;;
2023/10/10 08:24:34;;;;;;;12.9;3.2;;;;;;;21.67;54.8916;943.3314;;;;
2023/10/10 08:27:09;;;;;;;11.3;3.1;;;;;;;21.75;54.10449;943.4072;;;;
2023/10/10 08:29:27;;;;;;;13.7;3;;;;;;;21.82;53.3291;943.4194;;;;
2023/10/10 08:31:54;;;;;;;8.4;2.8;;;;;;;21.95;52.61816;943.3658;;;;
2023/10/10 08:34:19;;;;;;;11.7;3.2;;;;;;;22.19;52.42383;943.3688;;;;
2023/10/10 08:36:44;;;;;;;11.7;2.9;;;;;;;22.3;51.66309;943.4026;;;;
2023/10/10 08:39:25;;;;;;;10.3;2.8;;;;;;;22.49;51.94238;943.2969;;;;
2023/10/10 08:41:38;;;;;;;12.8;3.1;;;;;;;22.57;51.31738;943.2996;;;;
2023/10/10 08:44:01;;;;;;;18.2;3.9;;;;;;;22.81;49.92578;943.2644;;;;
2023/10/10 08:46:24;;;;;;;9.7;3.3;;;;;;;22.99;50.73242;943.2889;;;;
2023/10/10 08:48:53;;;;;;;13.1;3.1;;;;;;;22.75;49.80176;943.3002;;;;
2023/10/10 08:51:20;;;;;;;14.8;3.4;;;;;;;22.86;50.29492;943.2294;;;;
2023/10/10 08:53:44;;;;;;;8;2.7;;;;;;;22.66;51.9043;943.2583;;;;
2023/10/10 08:56:14;;;;;;;11.7;3.2;;;;;;;22.93;52.42871;943.2556;;;;
2023/10/10 08:58:36;;;;;;;10.4;3;;;;;;;23.07;50.25977;943.2461;;;;
2023/10/10 09:01:01;;;;;;;9.7;2.9;;;;;;;23.02;50.40625;943.209;;;;
2023/10/10 09:03:34;;;;;;;8;3.1;;;;;;;22.96;50.4834;943.1702;;;;
2023/10/10 09:05:55;;;;;;;11.8;3.2;;;;;;;23.13;49.99707;943.1775;;;;
2023/10/10 09:08:26;;;;;;;9.4;2.7;;;;;;;23.09;48.19531;943.1575;;;;
2023/10/10 09:10:46;;;;;;;9;3.1;;;;;;;23.29;48.20508;943.1721;;;;
2023/10/10 09:13:09;;;;;;;11.7;3.1;;;;;;;23.35;48.66895;943.1522;;;;
2023/10/10 09:15:35;;;;;;;14;3.1;;;;;;;23.4;47.54492;943.1692;;;;
2023/10/10 09:18:05;;;;;;;11.7;3;;;;;;;23.66;47.10352;943.1566;;;;
2023/10/10 09:20:28;;;;;;;13;3.1;;;;;;;24.06;46.41602;943.1142;;;;
2023/10/10 09:22:51;;;;;;;9;3.2;;;;;;;24.16;46.66113;943.1831;;;;
2023/10/10 09:25:19;;;;;;;12.7;3;;;;;;;24.21;45.50098;943.1717;;;;
2023/10/10 09:27:40;;;;;;;9.5;3.5;;;;;;;23.83;46.73242;943.1471;;;;
2023/10/10 09:30:09;;;;;;;15.2;3.2;;;;;;;23.84;46.50977;943.1616;;;;
2023/10/10 09:32:35;;;;;;;13.7;2.6;;;;;;;23.88;47.43262;943.1423;;;;
2023/10/10 09:34:59;;;;;;;14.3;2.7;;;;;;;23.74;45.47656;943.1564;;;;
2023/10/10 09:37:30;;;;;;;10.5;2.8;;;;;;;23.73;46.2041;943.113;;;;
2023/10/10 09:39:54;;;;;;;10.4;3.2;;;;;;;23.82;46.7207;943.1276;;;;
2023/10/10 09:42:44;;;;;;;11.8;3.1;;;;;;;23.85;48.58301;943.1278;;;;
2023/10/10 09:44:53;;;;;;;12.2;3.4;;;;;;;23.39;50.41406;943.1322;;;;
2023/10/10 09:47:37;;;;;;;10.2;3;;;;;;;23.05;49.74121;943.1678;;;;
2023/10/10 09:49:35;;;;;;;12.8;3.6;;;;;;;22.7;52.44922;943.1295;;;;
2023/10/10 09:54:25;;;;;;;12.8;3.3;;;;;;;22.95;54.70996;943.1006;;;;
2023/10/10 09:56:45;;;;;;;11.9;4;;;;;;;23.14;52.44141;943.1074;;;;
2023/10/10 09:59:16;;;;;;;14.4;3;;;;;;;23.15;52.90234;943.1085;;;;
2023/10/10 10:01:46;;;;;;;11.4;2.8;;;;;;;23.42;50.57031;943.0709;;;;
2023/10/10 10:04:11;;;;;;;13.1;3.2;;;;;;;23.51;50.9209;943.118;;;;
2023/10/10 10:06:36;;;;;;;15.9;3;;;;;;;23.54;50.34961;943.1129;;;;
2023/10/10 10:09:08;;;;;;;13.5;3.3;;;;;;;23.77;49.1748;943.1393;;;;
2023/10/10 10:11:25;;;;;;;11.4;3.5;;;;;;;23.88;48.48047;943.1072;;;;
2023/10/10 10:13:54;;;;;;;10.8;2.5;;;;;;;23.66;50.39746;943.1451;;;;
2023/10/10 10:16:20;;;;;;;8.8;2.9;;;;;;;23.64;50.16016;943.1531;;;;
2023/10/10 10:18:46;;;;;;;11.8;2.9;;;;;;;23.62;49.6748;943.135;;;;
2023/10/10 10:21:18;;;;;;;11;3.1;;;;;;;23.68;51.28223;943.1121;;;;
2023/10/10 10:23:38;;;;;;;11.3;3.5;;;;;;;23.52;53.78027;943.0656;;;;
2023/10/10 10:26:04;;;;;;;8.8;2.9;;;;;;;23.37;57.29004;943.0693;;;;
2023/10/10 10:28:28;;;;;;;13;3;;;;;;;23.46;54.64355;943.0561;;;;
2023/10/10 10:30:50;;;;;;;12.4;3.5;;;;;;;23.71;52.84961;943.0916;;;;
2023/10/10 10:33:15;;;;;;;12.4;3.5;;;;;;;23.81;52.66309;943.0131;;;;
2023/10/10 10:35:44;;;;;;;11.6;2.8;;;;;;;23.87;53.62109;943.0508;;;;
2023/10/10 10:38:07;;;;;;;14.2;3.3;;;;;;;23.95;54.75195;942.9883;;;;
2023/10/10 10:40:42;;;;;;;13.1;3.4;;;;;;;23.85;53.9502;943.0424;;;;
2023/10/10 10:42:58;;;;;;;14.8;3.4;;;;;;;23.97;54.54102;943.0252;;;;
2023/10/10 10:45:23;;;;;;;14.7;3.3;;;;;;;24.18;52.15332;942.9717;;;;
2023/10/10 10:47:49;;;;;;;11.3;3.3;;;;;;;24.43;51.49805;942.9303;;;;
2023/10/10 10:50:45;;;;;;;11;3.5;;;;;;;24.46;52.97559;942.9526;;;;
2023/10/10 10:53:20;;;;;;;17.1;3.7;;;;;;;24.72;52.34473;942.9048;;;;
2023/10/10 10:55:39;;;;;;;11.8;2.8;;;;;;;25;52;942.8638;;;;
2023/10/10 10:58:08;;;;;;;14.4;2.9;;;;;;;25.16;50.05859;942.8904;;;;
2023/10/10 11:00:41;;;;;;;13.1;3.5;;;;;;;25.57;48.66406;942.8557;;;;
2023/10/10 11:02:54;;;;;;;9;2.7;;;;;;;25.51;49.21289;942.8376;;;;
2023/10/10 11:05:20;;;;;;;19.1;3.5;;;;;;;26.16;47.16602;942.8523;;;;
2023/10/10 11:07:45;;;;;;;10.6;3.2;;;;;;;26.22;48.69922;942.8225;;;;
2023/10/10 11:10:11;;;;;;;16.4;3.4;;;;;;;26.56;48.22754;942.7086;;;;
2023/10/10 11:12:41;;;;;;;10.3;3.4;;;;;;;26.75;47.66797;942.7539;;;;
2023/10/10 11:15:10;;;;;;;10.3;3.1;;;;;;;27.71;45.7627;942.7335;;;;
2023/10/10 11:17:37;;;;;;;12.8;3.3;;;;;;;28.17;44.01465;942.673;;;;
2023/10/10 11:19:55;;;;;;;8.9;3;;;;;;;28.58;41.93848;942.6841;;;;
2023/10/10 11:22:38;;;;;;;13.6;3.4;;;;;;;29;41.69141;942.6106;;;;
2023/10/10 11:24:48;;;;;;;14.4;3.4;;;;;;;28.76;40.97852;942.5937;;;;
2023/10/10 11:27:13;;;;;;;10.3;3.1;;;;;;;28.79;41.01758;942.5723;;;;
2023/10/10 11:29:41;;;;;;;14.3;3.5;;;;;;;29.6;40.00684;942.5645;;;;
2023/10/10 11:32:07;;;;;;;11.6;3;;;;;;;31.38;36.74121;942.491;;;;
2023/10/10 11:34:42;;;;;;;13.2;3.2;;;;;;;31.87;35.53516;942.485;;;;
2023/10/10 11:36:51;;;;;;;14.1;3.4;;;;;;;32.88;33.64453;942.4562;;;;
2023/10/10 11:39:18;;;;;;;9.9;2.8;;;;;;;33.69;32.33398;942.4905;;;;
2023/10/10 11:41:40;;;;;;;10.2;3.2;;;;;;;34.25;30.97559;942.425;;;;
2023/10/10 11:44:06;;;;;;;10.3;3.6;;;;;;;34.22;31.38379;942.4564;;;;
2023/10/10 11:46:30;;;;;;;11;3.3;;;;;;;34.44;31.21777;942.3512;;;;
2023/10/10 11:48:59;;;;;;;10.8;3.6;;;;;;;34.99;31.13574;942.4003;;;;
2023/10/10 11:51:23;;;;;;;10.1;3;;;;;;;34.45;31.1709;942.4032;;;;
2023/10/10 11:53:48;;;;;;;11.5;3;;;;;;;33.92;31.72363;942.4363;;;;
2023/10/10 11:56:17;;;;;;;12.6;3.9;;;;;;;33.45;32.56934;942.4247;;;;
2023/10/10 11:58:49;;;;;;;11.6;3.2;;;;;;;32.14;34.70508;942.3474;;;;
2023/10/10 12:01:10;;;;;;;13;3.3;;;;;;;31.98;34.70508;942.3499;;;;
2023/10/10 12:03:43;;;;;;;8.4;2.8;;;;;;;32.16;34.28711;942.3644;;;;
2023/10/10 12:06:02;;;;;;;9.7;3;;;;;;;32.52;34.24121;942.3776;;;;
2023/10/10 12:08:27;;;;;;;10.5;3.3;;;;;;;32.27;34.42676;942.3177;;;;
2023/10/10 12:11:03;;;;;;;10;3.4;;;;;;;31.86;34.8877;942.3314;;;;
2023/10/10 12:15:13;;;;;;;10.4;3.5;;;;;;;31.7;35.65332;942.3008;;;;
2023/10/10 12:15:45;;;;;;;9.2;3.1;;;;;;;31.45;36.49512;942.2355;;;;
2023/10/10 12:18:09;;;;;;;9.1;3.4;;;;;;;31.44;36.13672;942.2466;;;;
2023/10/10 12:20:34;;;;;;;12;3.2;;;;;;;30.85;36.06445;942.2938;;;;
2023/10/10 12:23:00;;;;;;;11;3.5;;;;;;;30.91;36.18945;942.2165;;;;
2023/10/10 12:25:25;;;;;;;13.8;3.2;;;;;;;30.55;36.9375;942.2695;;;;
2023/10/10 12:27:54;;;;;;;12.6;3;;;;;;;30.31;37.07129;942.2514;;;;
2023/10/10 12:30:18;;;;;;;13.2;3.3;;;;;;;30.08;39.0459;942.2658;;;;
2023/10/10 12:32:40;;;;;;;9.5;3.5;;;;;;;29.25;40.72656;942.2551;;;;
2023/10/10 12:35:11;;;;;;;11;2.9;;;;;;;28.99;40.97559;942.2383;;;;
2023/10/10 12:37:38;;;;;;;11.2;3.3;;;;;;;29.21;40.22266;942.2092;;;;
2023/10/10 12:40:08;;;;;;;12.1;3.4;;;;;;;28.77;41.11133;942.2249;;;;
2023/10/10 12:42:28;;;;;;;13.9;3.5;;;;;;;29.2;40.33984;942.2308;;;;
2023/10/10 12:44:53;;;;;;;9.4;3.1;;;;;;;28.96;40.90137;942.2308;;;;
2023/10/10 12:47:19;;;;;;;10.5;3.2;;;;;;;29.07;40.45996;942.1592;;;;
2023/10/10 12:49:46;;;;;;;11.1;3.2;;;;;;;29.05;39.82715;942.2414;;;;
2023/10/10 12:52:13;;;;;;;10.9;4;;;;;;;28.83;40.87793;942.213;;;;
2023/10/10 12:54:37;;;;;;;9.5;3.6;;;;;;;28.46;41.16602;942.2425;;;;
2023/10/10 12:57:05;;;;;;;10.4;3.2;;;;;;;28.66;40.93457;942.214;;;;
2023/10/10 12:59:28;;;;;;;8.6;3.1;;;;;;;28.23;41.97754;942.24;;;;
2023/10/10 13:01:56;;;;;;;17;3.9;;;;;;;28.22;42.12988;942.1832;;;;
2023/10/10 13:04:19;;;;;;;11.6;3.6;;;;;;;28.14;42.21777;942.1611;;;;
2023/10/10 13:06:51;;;;;;;10.7;3.3;;;;;;;28.25;42.50098;942.1763;;;;
2023/10/10 13:09:14;;;;;;;11.4;3.1;;;;;;;28.1;42.25;942.1222;;;;
2023/10/10 13:11:43;;;;;;;9;3.6;;;;;;;28.59;41.08203;942.0995;;;;
2023/10/10 13:14:09;;;;;;;7.8;3.2;;;;;;;28.61;40.95508;942.13;;;;
2023/10/10 13:16:37;;;;;;;11.5;3.1;;;;;;;29.35;40.55762;942.0974;;;;
2023/10/10 13:18:51;;;;;;;12.7;3.6;;;;;;;30.26;37.66504;942.1994;;;;
2023/10/10 13:21:20;;;;;;;12.5;3.6;;;;;;;30.97;35.58398;942.1336;;;;
2023/10/10 13:23:43;;;;;;;9.5;3.4;;;;;;;31.33;35.55273;942.0897;;;;
2023/10/10 13:26:10;;;;;;;10.5;3.3;;;;;;;31.84;34.4541;942.1262;;;;
2023/10/10 13:28:36;;;;;;;11.6;3.4;;;;;;;32.79;33.13379;942.1373;;;;
2023/10/10 13:31:02;;;;;;;11.2;3.3;;;;;;;31.8;34.23535;942.0989;;;;
2023/10/10 13:33:27;;;;;;;10.1;3.5;;;;;;;32.68;32.99414;942.0239;;;;
2023/10/10 13:35:53;;;;;;;11;3.5;;;;;;;32.88;32.83984;942.0559;;;;
2023/10/10 13:38:18;;;;;;;8.5;3;;;;;;;32.88;32.43164;942.0212;;;;
2023/10/10 13:40:48;;;;;;;13.7;3.1;;;;;;;32.71;32.6123;942.0449;;;;
2023/10/10 13:43:16;;;;;;;8;3;;;;;;;32.36;32.80273;942.0232;;;;
2023/10/10 13:45:38;;;;;;;9.3;3.2;;;;;;;31.91;34.33984;942.0242;;;;
2023/10/10 13:48:04;;;;;;;10.9;3.2;;;;;;;32.41;33.46582;941.991;;;;
2023/10/10 13:50:31;;;;;;;11.1;3.5;;;;;;;33.14;32.53516;942.0056;;;;
2023/10/10 13:52:52;;;;;;;10;3;;;;;;;33.86;31.47949;942.0228;;;;
2023/10/10 13:55:21;;;;;;;11.1;3.2;;;;;;;34.59;30.79395;941.9788;;;;
2023/10/10 13:57:44;;;;;;;13.4;2.9;;;;;;;34.26;30.91699;942.0295;;;;
2023/10/10 14:00:29;;;;;;;10;2.9;;;;;;;33.84;31.4541;942.0129;;;;
2023/10/10 14:02:43;;;;;;;8.9;3.3;;;;;;;32.92;32.59082;941.9606;;;;
2023/10/10 14:05:06;;;;;;;12.4;3.4;;;;;;;32.1;33.99512;942.005;;;;
2023/10/10 14:07:38;;;;;;;7.6;2.9;;;;;;;32.14;33.86621;941.9856;;;;
2023/10/10 14:10:05;;;;;;;9;2.7;;;;;;;32.08;33.76563;941.9384;;;;
2023/10/10 14:12:31;;;;;;;12.6;3.8;;;;;;;32.18;33.83301;941.942;;;;
2023/10/10 14:14:51;;;;;;;8.4;2.9;;;;;;;32.1;33.83984;941.9347;;;;
2023/10/10 14:17:16;;;;;;;13.7;3.1;;;;;;;31.91;33.77637;941.9289;;;;
2023/10/10 14:19:58;;;;;;;10.5;2.9;;;;;;;31.33;35.24121;941.9877;;;;
2023/10/10 14:22:22;;;;;;;11;3;;;;;;;30.93;35.41406;941.976;;;;
2023/10/10 14:24:42;;;;;;;10.9;3.2;;;;;;;30.52;35.96777;941.8881;;;;
2023/10/10 14:27:09;;;;;;;10.6;3;;;;;;;30.22;36.94531;941.9678;;;;
2023/10/10 14:29:41;;;;;;;12.2;3.3;;;;;;;30.18;37.08496;941.9221;;;;
2023/10/10 14:31:59;;;;;;;12.3;3.4;;;;;;;29.93;37.07617;941.9572;;;;
2023/10/10 14:34:26;;;;;;;10.6;2.9;;;;;;;29.72;37.87109;941.9651;;;;
2023/10/10 14:36:53;;;;;;;11.8;3.3;;;;;;;29.81;37.87891;941.9213;;;;
2023/10/10 14:39:31;;;;;;;9;2.7;;;;;;;29.88;37.59863;941.9913;;;;
2023/10/10 14:41:44;;;;;;;11.6;3;;;;;;;29.89;37.9209;941.9725;;;;
2023/10/10 14:44:12;;;;;;;9.4;3.1;;;;;;;29.18;39.15918;941.9468;;;;
2023/10/10 14:46:40;;;;;;;13.7;2.9;;;;;;;28.57;40.55762;941.9699;;;;
2023/10/10 14:49:16;;;;;;;8.9;3.1;;;;;;;28.41;40.36523;941.9252;;;;
2023/10/10 14:51:33;;;;;;;9.8;2.9;;;;;;;28.8;40.16211;941.9526;;;;
2023/10/10 14:53:54;;;;;;;12;3.6;;;;;;;28.85;40.29688;941.9924;;;;
2023/10/10 14:56:22;;;;;;;12.7;3.6;;;;;;;28.86;40.20215;941.8633;;;;
2023/10/10 14:58:48;;;;;;;8.6;3;;;;;;;28.51;40.77832;941.9359;;;;
2023/10/10 15:01:17;;;;;;;12.8;3.5;;;;;;;28.15;41.71973;941.9069;;;;
2023/10/10 15:03:40;;;;;;;14.4;4.2;;;;;;;28.36;41.40625;941.8528;;;;
2023/10/10 15:06:06;;;;;;;7.6;3;;;;;;;28.37;41.66895;941.8925;;;;
2023/10/10 15:08:27;;;;;;;11.4;3;;;;;;;28.44;41.94922;941.8975;;;;
2023/10/10 15:10:53;;;;;;;11.9;3.3;;;;;;;28.69;40.85449;941.9139;;;;
2023/10/10 15:13:18;;;;;;;11.7;2.9;;;;;;;27.73;42.48828;941.9028;;;;
2023/10/10 15:15:45;;;;;;;13.2;3.1;;;;;;;28.06;42.43652;941.8663;;;;
2023/10/10 15:18:14;;;;;;;16.6;3.4;;;;;;;28.09;42.58105;941.8823;;;;
2023/10/10 15:20:34;;;;;;;9.3;3.2;;;;;;;28.18;43.07715;941.924;;;;
2023/10/10 15:23:02;;;;;;;10.5;3.1;;;;;;;27.86;43.04688;941.9297;;;;
2023/10/10 15:25:27;;;;;;;12.6;3.4;;;;;;;27.55;43.76465;941.9369;;;;
2023/10/10 15:27:56;;;;;;;11.5;3.8;;;;;;;26.7;45.74219;941.9991;;;;
2023/10/10 15:30:19;;;;;;;10.7;3;;;;;;;26.69;45.75391;941.9545;;;;
2023/10/10 15:32:46;;;;;;;21.8;3.8;;;;;;;26.64;46.36426;941.9241;;;;
2023/10/10 15:35:13;;;;;;;13.7;3.6;;;;;;;26.48;46.77441;941.9853;;;;
2023/10/10 15:37:42;;;;;;;13.8;3.7;;;;;;;26.31;48.09473;942.0126;;;;
2023/10/10 15:40:05;;;;;;;10.1;3.8;;;;;;;25.85;49.66406;942.0442;;;;
2023/10/10 15:42:33;;;;;;;16.6;3.7;;;;;;;25.58;50.21289;942.0176;;;;
2023/10/10 15:44:57;;;;;;;11.2;3.9;;;;;;;25.36;50.41309;942.0786;;;;
2023/10/10 15:47:27;;;;;;;11.2;3.2;;;;;;;25.06;49.95313;942.1;;;;
2023/10/10 15:49:51;;;;;;;9.5;3.5;;;;;;;25.02;51.58887;942.0922;;;;
2023/10/10 15:52:18;;;;;;;11.3;3.5;;;;;;;24.77;53.88379;942.0944;;;;
2023/10/10 15:54:41;;;;;;;14.7;3.8;;;;;;;24.28;55.87402;942.1611;;;;
2023/10/10 15:57:08;;;;;;;13.9;3.5;;;;;;;23.93;57.24414;942.1365;;;;